Time;durP1;ratioP1;P1;durP2;ratioP2;P2;SDS_P1;SDS_P2;PMS_P1;PMS_P2;Temp;Humidity;BMP_temperature;BMP_pressure;BME280_temperature;BME280_humidity;BME280_pressure;Samples;Min_cycle;Max_cycle;Signal;HPM_P1;HPM_P2
2022/01/24 00:01:52;;;;;;;1999.90;999.90;;;;;;;2.56;65.00;103031.91;4973735;28;98249;-73
2022/01/24 00:04:21;;;;;;;1999.90;999.90;;;;;;;2.60;65.16;103029.69;4977136;28;98907;-73
2022/01/24 00:06:48;;;;;;;1999.90;999.90;;;;;;;2.59;65.07;103034.81;4961795;28;97300;-73
2022/01/24 00:09:16;;;;;;;1999.90;999.90;;;;;;;2.62;65.26;103028.09;4962435;28;102113;-72
2022/01/24 00:11:48;;;;;;;1999.90;999.90;;;;;;;2.66;64.74;103034.56;4960430;28;98976;-72
2022/01/24 00:17:08;;;;;;;1999.90;999.90;;;;;;;2.69;64.42;103040.09;4977551;28;98580;-72
2022/01/24 00:27:57;;;;;;;1999.90;999.90;;;;;;;2.67;65.10;103025.91;4973489;28;96915;-73
2022/01/24 00:30:25;;;;;;;1999.90;999.90;;;;;;;2.69;64.99;103026.97;4959069;28;100137;-71
2022/01/24 00:32:55;;;;;;;1999.90;999.90;;;;;;;2.69;65.14;103033.13;4978628;28;98152;-74
2022/01/24 00:35:23;;;;;;;1999.90;999.90;;;;;;;2.65;64.94;103028.41;4975600;28;98490;-73
2022/01/24 00:37:50;;;;;;;1999.90;999.90;;;;;;;2.68;64.73;103027.72;4976709;28;98585;-73
2022/01/24 00:40:18;;;;;;;1999.90;999.90;;;;;;;2.63;65.05;103031.66;4975564;28;99249;-72
2022/01/24 00:42:52;;;;;;;1999.90;999.90;;;;;;;2.61;64.72;103027.97;4975402;28;99465;-72
2022/01/24 00:45:30;;;;;;;1999.90;999.90;;;;;;;2.64;65.03;103037.06;4975164;28;96924;-72
2022/01/24 00:48:20;;;;;;;1999.90;999.90;;;;;;;2.64;64.92;103036.13;4976786;28;99198;-73
2022/01/24 00:53:50;;;;;;;1999.90;999.90;;;;;;;2.68;65.13;103033.00;4979606;28;98567;-73
2022/01/24 00:56:18;;;;;;;1999.90;999.90;;;;;;;2.70;64.75;103032.34;4977722;28;98233;-73
2022/01/24 00:58:46;;;;;;;1999.90;999.90;;;;;;;2.73;64.60;103032.63;4980201;28;98764;-73
2022/01/24 01:01:14;;;;;;;1999.90;999.90;;;;;;;2.72;65.17;103032.47;4978373;28;99228;-73
2022/01/24 01:03:44;;;;;;;1999.90;999.90;;;;;;;2.73;64.73;103039.59;4975751;28;99239;-72
2022/01/24 01:06:13;;;;;;;1999.90;999.90;;;;;;;2.66;64.93;103043.38;4976858;28;96827;-73
2022/01/24 01:19:58;;;;;;;1999.90;999.90;;;;;;;2.70;64.98;103044.56;4880383;28;98666;-73
2022/01/24 01:22:26;;;;;;;1999.90;999.90;;;;;;;2.64;65.30;103038.75;4961109;28;98230;-70
2022/01/24 01:24:55;;;;;;;1999.90;999.90;;;;;;;2.50;64.93;103034.91;4979583;28;97316;-71
2022/01/24 01:27:27;;;;;;;1999.90;999.90;;;;;;;2.56;65.24;103032.84;4977716;28;100620;-72
2022/01/24 01:29:59;;;;;;;1999.90;999.90;;;;;;;2.47;65.00;103033.72;4982139;28;96513;-73
2022/01/24 01:32:53;;;;;;;1999.90;999.90;;;;;;;2.51;65.33;103034.13;4980394;28;98063;-73
2022/01/24 01:35:43;;;;;;;1999.90;999.90;;;;;;;2.50;65.09;103036.63;4978633;28;97935;-72
2022/01/24 01:38:36;;;;;;;1999.90;999.90;;;;;;;2.49;65.54;103034.78;4979786;28;98686;-72
2022/01/24 01:52:34;;;;;;;1999.90;999.90;;;;;;;2.55;65.22;103027.41;4973862;28;97555;-72
2022/01/24 01:55:14;;;;;;;1999.90;999.90;;;;;;;2.54;65.29;103017.72;4977022;28;98783;-73
2022/01/24 01:57:42;;;;;;;1999.90;999.90;;;;;;;2.44;65.17;103015.97;4977633;28;97744;-72
2022/01/24 02:00:13;;;;;;;1999.90;999.90;;;;;;;2.44;65.58;103008.09;4978878;28;97170;-72
2022/01/24 02:02:41;;;;;;;1999.90;999.90;;;;;;;2.24;65.79;103020.25;4977779;28;97043;-72
2022/01/24 02:05:09;;;;;;;1999.90;999.90;;;;;;;2.22;66.29;103011.28;4976710;28;97684;-72
2022/01/24 02:07:47;;;;;;;1999.90;999.90;;;;;;;2.18;66.55;103010.09;4979903;28;98866;-72
2022/01/24 02:10:15;;;;;;;1999.90;999.90;;;;;;;2.24;65.89;103005.38;4979371;28;98684;-72
2022/01/24 02:12:43;;;;;;;1999.90;999.90;;;;;;;2.35;65.81;103008.97;4961527;28;97314;-73
2022/01/24 02:15:15;;;;;;;1999.90;999.90;;;;;;;2.31;65.88;103009.50;4977982;28;99598;-73
2022/01/24 02:17:54;;;;;;;1999.90;999.90;;;;;;;2.31;66.45;103010.38;4961553;28;101066;-72
2022/01/24 02:20:39;;;;;;;1999.90;999.90;;;;;;;2.27;66.16;103000.41;4985293;28;96984;-72
2022/01/24 02:23:20;;;;;;;1999.90;999.90;;;;;;;2.27;65.94;103002.13;4982985;28;98909;-72
2022/01/24 02:25:49;;;;;;;1999.90;999.90;;;;;;;2.09;66.31;103010.16;4985119;28;97746;-73
2022/01/24 02:28:19;;;;;;;1999.90;999.90;;;;;;;2.12;66.39;103004.28;4987133;28;99460;-72
2022/01/24 02:30:58;;;;;;;1999.90;999.90;;;;;;;2.14;66.29;103013.22;4988667;28;96955;-73
2022/01/24 02:33:26;;;;;;;1999.90;999.90;;;;;;;2.03;66.28;103009.59;4985729;28;97541;-73
2022/01/24 02:35:54;;;;;;;1999.90;999.90;;;;;;;2.10;66.09;103011.09;4981802;28;99387;-72
2022/01/24 02:38:37;;;;;;;1999.90;999.90;;;;;;;2.09;67.05;103011.91;4985971;28;97395;-73
2022/01/24 02:49:29;;;;;;;1999.90;999.90;;;;;;;1.93;67.41;103012.16;4981544;28;100530;-72
2022/01/24 02:52:03;;;;;;;1999.90;999.90;;;;;;;1.91;67.30;103020.66;4983075;28;97168;-73
2022/01/24 02:54:33;;;;;;;1999.90;999.90;;;;;;;1.89;67.57;103014.38;4988579;28;98332;-72
2022/01/24 02:57:02;;;;;;;1999.90;999.90;;;;;;;1.80;67.08;103014.44;4983896;28;100738;-72
2022/01/24 02:59:30;;;;;;;1999.90;999.90;;;;;;;1.84;66.55;103020.88;4985926;28;97911;-71
2022/01/24 03:01:58;;;;;;;1999.90;999.90;;;;;;;1.91;66.62;103024.22;4983272;28;97301;-72
2022/01/24 03:04:32;;;;;;;1999.90;999.90;;;;;;;1.99;66.46;103010.09;5004026;28;96986;-72
2022/01/24 03:07:07;;;;;;;1999.90;999.90;;;;;;;2.03;66.19;103009.59;4984379;28;98738;-72
2022/01/24 03:09:37;;;;;;;1999.90;999.90;;;;;;;2.03;66.53;103004.34;4984274;28;99072;-72
2022/01/24 03:12:11;;;;;;;1999.90;999.90;;;;;;;2.01;66.31;103010.22;4984252;28;98066;-72
2022/01/24 03:14:39;;;;;;;1999.90;999.90;;;;;;;2.01;66.14;103011.16;4984256;28;97326;-72
2022/01/24 03:17:07;;;;;;;1999.90;999.90;;;;;;;2.00;66.36;103011.94;4982463;28;100452;-73
2022/01/24 03:19:35;;;;;;;1999.90;999.90;;;;;;;2.00;66.16;103006.69;4986865;28;97923;-73
2022/01/24 03:22:03;;;;;;;1999.90;999.90;;;;;;;2.00;66.27;103008.38;4982957;28;97311;-73
2022/01/24 03:24:31;;;;;;;1999.90;999.90;;;;;;;1.99;66.26;103010.09;4981593;28;97251;-73
2022/01/24 03:27:00;;;;;;;1999.90;999.90;;;;;;;1.97;66.42;103008.09;4976203;28;100920;-73
2022/01/24 03:29:28;;;;;;;1999.90;999.90;;;;;;;1.99;66.67;103010.09;4981421;28;97489;-72
2022/01/24 03:31:56;;;;;;;1999.90;999.90;;;;;;;2.01;66.10;103010.22;4978992;28;97469;-73
2022/01/24 03:34:25;;;;;;;1999.90;999.90;;;;;;;2.06;66.08;103004.63;4996651;28;97863;-73
2022/01/24 03:36:53;;;;;;;1999.90;999.90;;;;;;;1.86;66.96;103015.00;4977405;28;98012;-71
2022/01/24 03:39:24;;;;;;;1999.90;999.90;;;;;;;1.87;67.17;103010.69;4976694;28;100450;-72
2022/01/24 03:41:52;;;;;;;1999.90;999.90;;;;;;;2.01;66.97;103011.16;4961453;28;97920;-73
2022/01/24 03:44:23;;;;;;;1999.90;999.90;;;;;;;2.00;66.66;103014.56;4979964;28;97020;-73
2022/01/24 03:47:12;;;;;;;1999.90;999.90;;;;;;;2.00;66.47;103017.19;4977593;28;97557;-73
2022/01/24 03:49:47;;;;;;;1999.90;999.90;;;;;;;1.95;66.76;103015.84;4978134;28;99781;-73
2022/01/24 03:52:16;;;;;;;1999.90;999.90;;;;;;;1.98;66.98;103012.59;4978890;28;97537;-73
2022/01/24 03:54:44;;;;;;;1999.90;999.90;;;;;;;2.03;66.19;103014.84;4978297;28;97020;-73
2022/01/24 03:57:13;;;;;;;1999.90;999.90;;;;;;;2.09;66.42;103017.16;4980900;28;98752;-72
2022/01/24 03:59:43;;;;;;;1999.90;999.90;;;;;;;2.06;66.28;103014.19;4978856;28;99320;-72
2022/01/24 04:02:11;;;;;;;1999.90;999.90;;;;;;;2.12;65.90;103014.78;4978786;28;98548;-72
2022/01/24 04:04:40;;;;;;;1999.90;999.90;;;;;;;2.05;66.26;103017.63;4980312;28;98082;-72
2022/01/24 04:07:09;;;;;;;1999.90;999.90;;;;;;;2.07;65.88;103006.44;4978130;28;98812;-72
2022/01/24 04:09:39;;;;;;;1999.90;999.90;;;;;;;2.09;66.37;103014.53;4974199;28;101255;-73
2022/01/24 04:12:08;;;;;;;1999.90;999.90;;;;;;;2.08;65.90;103010.94;4979811;28;97698;-72
2022/01/24 04:14:40;;;;;;;1999.90;999.90;;;;;;;2.09;65.88;103002.28;4981519;28;98880;-72
2022/01/24 04:17:22;;;;;;;1999.90;999.90;;;;;;;2.15;65.91;103008.09;4976577;28;100565;-73
2022/01/24 04:22:37;;;;;;;1999.90;999.90;;;;;;;2.14;66.43;103011.50;4977718;28;96812;-73
2022/01/24 04:25:13;;;;;;;1999.90;999.90;;;;;;;2.18;65.77;103011.00;4979270;28;97500;-74
2022/01/24 04:27:41;;;;;;;1999.90;999.90;;;;;;;2.13;65.83;103004.41;4979131;28;99321;-73
2022/01/24 04:30:10;;;;;;;1999.90;999.90;;;;;;;2.17;65.59;103014.44;4959358;28;99150;-72
2022/01/24 04:32:39;;;;;;;1999.90;999.90;;;;;;;2.06;66.38;103008.94;4978918;28;96832;-73
2022/01/24 04:35:07;;;;;;;1999.90;999.90;;;;;;;2.12;65.94;103007.84;4980045;28;97124;-73
2022/01/24 04:37:35;;;;;;;1999.90;999.90;;;;;;;2.05;66.78;103008.00;4977808;28;97941;-73
2022/01/24 04:40:04;;;;;;;1999.90;999.90;;;;;;;2.08;65.74;103017.88;4977909;28;97785;-72
2022/01/24 04:42:40;;;;;;;1999.90;999.90;;;;;;;2.12;65.88;103007.84;4978058;28;97945;-73
2022/01/24 04:45:29;;;;;;;1999.90;999.90;;;;;;;2.13;65.79;103007.03;4979943;28;98886;-72
2022/01/24 04:51:03;;;;;;;1999.90;999.90;;;;;;;2.16;66.10;103019.53;4976905;28;96889;-73
2022/01/24 04:53:53;;;;;;;1999.90;999.90;;;;;;;2.10;65.84;103017.28;4995144;28;96940;-73
2022/01/24 04:56:21;;;;;;;1999.90;999.90;;;;;;;2.15;65.83;103013.38;4960575;28;98713;-71
2022/01/24 04:58:48;;;;;;;1999.90;999.90;;;;;;;2.22;65.94;103021.81;4980726;28;100025;-74
2022/01/24 05:01:17;;;;;;;1999.90;999.90;;;;;;;2.20;65.46;103027.81;4981157;28;97728;-72
2022/01/24 05:03:46;;;;;;;1999.90;999.90;;;;;;;2.07;66.00;103027.47;4981030;28;96829;-73
2022/01/24 05:06:14;;;;;;;1999.90;999.90;;;;;;;2.18;65.63;103032.00;4985166;28;96880;-72
2022/01/24 05:08:42;;;;;;;1999.90;999.90;;;;;;;2.12;66.03;103036.72;4983087;28;98791;-71
2022/01/24 05:11:13;;;;;;;1999.90;999.90;;;;;;;2.15;65.66;103039.63;4981176;28;97632;-73
2022/01/24 05:24:41;;;;;;;1999.90;999.90;;;;;;;2.01;66.36;103037.44;4973050;28;98011;-73
2022/01/24 05:27:09;;;;;;;1999.90;999.90;;;;;;;1.99;66.30;103030.19;4985794;28;97746;-72
2022/01/24 05:29:36;;;;;;;1999.90;999.90;;;;;;;2.13;65.53;103032.38;4978596;28;97875;-72
2022/01/24 05:32:08;;;;;;;1999.90;999.90;;;;;;;2.12;65.25;103028.84;4980745;28;97240;-72
2022/01/24 05:34:37;;;;;;;1999.90;999.90;;;;;;;2.01;65.30;103036.50;4980341;28;98537;-73
2022/01/24 05:37:04;;;;;;;1999.90;999.90;;;;;;;2.00;65.79;103032.94;4985594;28;98002;-72
2022/01/24 05:39:32;;;;;;;1999.90;999.90;;;;;;;2.04;65.90;103036.75;4976657;28;98313;-72
2022/01/24 05:42:00;;;;;;;1999.90;999.90;;;;;;;2.04;66.06;103035.06;4980128;28;98887;-71
2022/01/24 05:44:28;;;;;;;1999.90;999.90;;;;;;;2.12;65.31;103036.72;5000215;28;97470;-72
2022/01/24 05:46:55;;;;;;;1999.90;999.90;;;;;;;1.98;65.84;103030.97;4980766;28;98788;-73
2022/01/24 05:49:23;;;;;;;1999.90;999.90;;;;;;;2.00;66.15;103042.50;4979661;28;98076;-73
2022/01/24 05:51:52;;;;;;;1999.90;999.90;;;;;;;2.03;65.49;103037.56;4963289;28;98239;-73
2022/01/24 05:54:20;;;;;;;1999.90;999.90;;;;;;;2.05;66.14;103033.38;4977642;28;98126;-73
2022/01/24 05:56:48;;;;;;;1999.90;999.90;;;;;;;2.00;66.12;103039.88;4979333;28;98456;-73
2022/01/24 05:59:16;;;;;;;1999.90;999.90;;;;;;;2.03;65.52;103041.13;4981057;28;97200;-73
2022/01/24 06:01:44;;;;;;;1999.90;999.90;;;;;;;2.13;65.68;103042.88;4980232;28;98032;-73
2022/01/24 06:04:11;;;;;;;1999.90;999.90;;;;;;;2.13;65.27;103042.88;4983633;28;96860;-71
2022/01/24 06:06:39;;;;;;;1999.90;999.90;;;;;;;2.09;65.67;103046.03;4965889;28;98160;-73
2022/01/24 06:09:08;;;;;;;1999.90;999.90;;;;;;;2.10;65.62;103045.25;4981344;28;99610;-73
2022/01/24 06:11:36;;;;;;;1999.90;999.90;;;;;;;2.07;65.57;103048.47;4981383;28;98801;-72
2022/01/24 06:14:04;;;;;;;1999.90;999.90;;;;;;;2.06;65.70;103044.00;4985423;28;97546;-72
2022/01/24 06:16:32;;;;;;;1999.90;999.90;;;;;;;2.03;64.96;103037.56;4984324;28;96805;-72
2022/01/24 06:19:00;;;;;;;1999.90;999.90;;;;;;;2.04;65.51;103042.94;4978938;28;99447;-72
2022/01/24 06:21:27;;;;;;;1999.90;999.90;;;;;;;2.07;65.84;103043.22;4983290;28;98779;-73
2022/01/24 06:23:55;;;;;;;1999.90;999.90;;;;;;;2.09;65.60;103041.69;4984433;28;97444;-72
2022/01/24 06:26:24;;;;;;;1999.90;999.90;;;;;;;2.14;64.97;103042.13;4981235;28;98731;-73
2022/01/24 06:28:52;;;;;;;1999.90;999.90;;;;;;;1.96;65.33;103045.66;4983503;28;99167;-73
2022/01/24 06:31:21;;;;;;;1999.90;999.90;;;;;;;2.17;65.70;103050.25;4984857;28;97150;-73
2022/01/24 06:33:49;;;;;;;1999.90;999.90;;;;;;;2.02;66.06;103048.81;4984227;28;96905;-73
2022/01/24 06:36:17;;;;;;;1999.90;999.90;;;;;;;2.15;64.91;103052.75;4984922;28;97719;-73
2022/01/24 06:38:44;;;;;;;1999.90;999.90;;;;;;;2.07;65.34;103050.19;4985295;28;97683;-71
2022/01/24 06:41:12;;;;;;;1999.90;999.90;;;;;;;2.08;65.08;103042.44;4961166;28;99827;-71
2022/01/24 06:43:41;;;;;;;1999.90;999.90;;;;;;;2.06;65.99;103046.63;4965156;28;99397;-70
2022/01/24 06:46:09;;;;;;;1999.90;999.90;;;;;;;2.06;65.99;103048.31;4981268;28;97927;-71
2022/01/24 06:48:37;;;;;;;1999.90;999.90;;;;;;;1.93;65.98;103038.41;4984957;28;99436;-71
2022/01/24 06:51:10;;;;;;;1999.90;999.90;;;;;;;1.98;66.05;103042.38;4984191;28;97919;-72
2022/01/24 06:53:38;;;;;;;1999.90;999.90;;;;;;;2.00;65.93;103040.81;4985044;28;97472;-72
2022/01/24 06:56:06;;;;;;;1999.90;999.90;;;;;;;1.97;66.09;103043.16;4984084;28;97359;-71
2022/01/24 06:58:34;;;;;;;1999.90;999.90;;;;;;;2.06;64.93;103044.00;4968622;28;99759;-72
2022/01/24 07:01:04;;;;;;;1999.90;999.90;;;;;;;2.06;65.74;103038.75;4985611;28;98873;-71
2022/01/24 07:03:32;;;;;;;1999.90;999.90;;;;;;;2.06;66.08;103041.38;4988103;28;97197;-71
2022/01/24 07:06:00;;;;;;;1999.90;999.90;;;;;;;2.06;65.40;103032.56;4984202;28;99406;-71
2022/01/24 07:08:28;;;;;;;1999.90;999.90;;;;;;;2.07;65.48;103039.69;4987233;28;100758;-72
2022/01/24 07:10:56;;;;;;;1999.90;999.90;;;;;;;2.13;65.01;103043.81;4968755;28;100780;-71
2022/01/24 07:13:24;;;;;;;1999.90;999.90;;;;;;;2.08;65.16;103041.50;4984665;28;97196;-72
2022/01/24 07:15:56;;;;;;;1999.90;999.90;;;;;;;2.08;65.25;103041.50;4984232;28;98297;-71
2022/01/24 07:21:11;;;;;;;1999.90;999.90;;;;;;;2.11;64.95;103047.06;4983456;28;98367;-71
2022/01/24 07:23:40;;;;;;;1999.90;999.90;;;;;;;2.07;65.05;103045.84;4988638;28;96964;-72
2022/01/24 07:26:08;;;;;;;1999.90;999.90;;;;;;;2.03;65.39;103053.31;4989275;28;96790;-71
2022/01/24 07:28:35;;;;;;;1999.90;999.90;;;;;;;2.02;66.06;103052.38;4969980;28;98531;-71
2022/01/24 07:31:03;;;;;;;1999.90;999.90;;;;;;;2.04;65.56;103057.75;4985803;28;99017;-71
2022/01/24 07:33:33;;;;;;;1999.90;999.90;;;;;;;2.07;65.57;103064.22;4968800;28;97481;-71
2022/01/24 07:36:00;;;;;;;1999.90;999.90;;;;;;;2.03;65.13;103066.44;4985299;28;97233;-71
2022/01/24 07:38:28;;;;;;;1999.90;999.90;;;;;;;2.05;65.43;103057.91;4987268;28;97649;-71
2022/01/24 07:40:57;;;;;;;1999.90;999.90;;;;;;;2.09;65.02;103067.06;4984050;28;98994;-71
2022/01/24 07:43:25;;;;;;;1999.90;999.90;;;;;;;2.07;65.58;103063.31;4985008;28;96903;-71
2022/01/24 07:45:53;;;;;;;1999.90;999.90;;;;;;;2.06;64.93;103067.66;4987446;28;97001;-71
2022/01/24 07:48:21;;;;;;;1999.90;999.90;;;;;;;2.04;65.11;103074.47;4984320;28;99795;-72
2022/01/24 07:50:52;;;;;;;1999.90;999.90;;;;;;;2.04;65.23;103071.84;4984720;28;97893;-71
2022/01/24 07:53:22;;;;;;;1999.90;999.90;;;;;;;2.05;65.12;103071.03;4985648;28;96930;-71
2022/01/24 07:56:10;;;;;;;1999.90;999.90;;;;;;;2.03;65.64;103064.75;4985518;28;96789;-71
2022/01/24 07:58:40;;;;;;;1999.90;999.90;;;;;;;2.05;65.32;103065.78;4986911;28;99181;-71
2022/01/24 08:01:09;;;;;;;1999.90;999.90;;;;;;;2.08;64.93;103065.16;4986504;28;97909;-71
2022/01/24 08:03:37;;;;;;;1999.90;999.90;;;;;;;2.07;65.18;103069.47;4984784;28;96820;-72
2022/01/24 08:06:06;;;;;;;1999.90;999.90;;;;;;;2.10;65.18;103058.38;4985965;28;97937;-71
2022/01/24 08:08:34;;;;;;;1999.90;999.90;;;;;;;2.17;65.16;103060.78;4985406;28;98642;-70
2022/01/24 08:11:02;;;;;;;1999.90;999.90;;;;;;;2.14;64.80;103061.41;4985380;28;99058;-71
2022/01/24 08:13:29;;;;;;;1999.90;999.90;;;;;;;2.09;64.81;103060.06;4966562;28;98531;-71
2022/01/24 08:15:57;;;;;;;1999.90;999.90;;;;;;;2.09;65.09;103067.94;4987419;28;96876;-71
2022/01/24 08:18:25;;;;;;;1999.90;999.90;;;;;;;2.14;64.93;103065.75;4987072;28;97611;-71
2022/01/24 08:20:53;;;;;;;1999.90;999.90;;;;;;;2.09;64.88;103073.19;4969383;28;97880;-70
2022/01/24 08:23:22;;;;;;;1999.90;999.90;;;;;;;2.08;65.22;103076.59;4967863;28;98882;-71
2022/01/24 08:25:55;;;;;;;1999.90;999.90;;;;;;;2.06;65.36;103072.91;4984771;28;97350;-70
2022/01/24 08:28:23;;;;;;;1999.90;999.90;;;;;;;2.12;65.54;103068.25;4965816;28;97712;-71
2022/01/24 08:30:52;;;;;;;1999.90;999.90;;;;;;;2.14;65.47;103064.03;4984381;28;98802;-71
2022/01/24 08:33:20;;;;;;;1999.90;999.90;;;;;;;2.14;65.33;103074.53;4986870;28;96819;-71
2022/01/24 08:35:48;;;;;;;1999.90;999.90;;;;;;;2.12;65.16;103068.25;4992255;28;96744;-71
2022/01/24 08:38:15;;;;;;;1999.90;999.90;;;;;;;2.15;65.12;103071.16;4989059;28;98920;-71
2022/01/24 08:40:47;;;;;;;1999.90;999.90;;;;;;;2.15;65.12;103063.25;4987163;28;97585;-70
2022/01/24 08:43:22;;;;;;;1999.90;999.90;;;;;;;2.12;65.50;103063.00;4990010;28;96486;-71
2022/01/24 08:45:53;;;;;;;1999.90;999.90;;;;;;;2.13;65.70;103059.56;4988130;28;97305;-71
2022/01/24 08:48:22;;;;;;;1999.90;999.90;;;;;;;2.12;64.97;103065.63;4987480;28;97929;-71
2022/01/24 08:50:52;;;;;;;1999.90;999.90;;;;;;;2.17;65.20;103058.16;4988784;28;99261;-71
2022/01/24 08:53:29;;;;;;;1999.90;999.90;;;;;;;2.14;65.21;103066.66;4988147;28;96916;-71
2022/01/24 08:55:59;;;;;;;1999.90;999.90;;;;;;;2.13;65.21;103072.72;4988275;28;97009;-71
2022/01/24 08:58:29;;;;;;;1999.90;999.90;;;;;;;2.23;64.93;103065.66;4987564;28;98262;-71
2022/01/24 09:00:57;;;;;;;1999.90;999.90;;;;;;;2.15;65.21;103060.63;4989664;28;98038;-71
2022/01/24 09:03:25;;;;;;;1999.90;999.90;;;;;;;2.17;64.85;103066.97;4986649;28;96886;-71
2022/01/24 09:05:54;;;;;;;1999.90;999.90;;;;;;;2.17;65.24;103066.03;4986929;28;96885;-70
2022/01/24 09:08:22;;;;;;;1999.90;999.90;;;;;;;2.16;65.61;103069.44;4988485;28;99139;-71
2022/01/24 09:10:51;;;;;;;1999.90;999.90;;;;;;;2.22;65.39;103074.34;4988140;28;99517;-71
2022/01/24 09:13:21;;;;;;;1999.90;999.90;;;;;;;2.19;64.84;103077.59;4989020;28;99116;-71
2022/01/24 09:15:49;;;;;;;1999.90;999.90;;;;;;;2.18;65.47;103065.25;4987054;28;97228;-71
2022/01/24 09:18:19;;;;;;;1999.90;999.90;;;;;;;2.13;65.56;103064.81;4987709;28;97951;-71
2022/01/24 09:20:49;;;;;;;1999.90;999.90;;;;;;;2.07;65.84;103063.31;4984923;28;100510;-71
2022/01/24 09:23:17;;;;;;;1999.90;999.90;;;;;;;2.14;65.37;103058.78;4986403;28;96856;-71
2022/01/24 09:25:45;;;;;;;1999.90;999.90;;;;;;;2.18;65.83;103057.38;4989058;28;97878;-71
2022/01/24 09:28:13;;;;;;;1999.90;999.90;;;;;;;2.20;64.99;103061.97;4987889;28;97122;-71
2022/01/24 09:30:42;;;;;;;1999.90;999.90;;;;;;;2.15;65.39;103062.34;4988064;28;97533;-71
2022/01/24 09:33:11;;;;;;;1999.90;999.90;;;;;;;2.20;65.70;103071.53;4986415;28;97245;-71
2022/01/24 09:35:40;;;;;;;1999.90;999.90;;;;;;;2.19;65.37;103059.22;4992102;28;96957;-71
2022/01/24 09:38:07;;;;;;;1999.90;999.90;;;;;;;2.00;65.70;103069.69;4990822;28;98867;-71
2022/01/24 09:40:35;;;;;;;1999.90;999.90;;;;;;;2.00;65.60;103074.94;4990321;28;98310;-71
2022/01/24 09:43:03;;;;;;;1999.90;999.90;;;;;;;2.20;65.24;103075.09;4987379;28;96923;-70
2022/01/24 09:45:31;;;;;;;1999.90;999.90;;;;;;;2.23;65.60;103071.84;4969796;28;97188;-70
2022/01/24 09:48:01;;;;;;;1999.90;999.90;;;;;;;2.22;65.33;103071.72;4985895;28;97565;-71
2022/01/24 09:50:29;;;;;;;1999.90;999.90;;;;;;;2.22;65.57;103071.72;4988535;28;97568;-71
2022/01/24 09:52:57;;;;;;;1999.90;999.90;;;;;;;2.24;65.02;103067.53;4986375;28;97205;-71
2022/01/24 09:55:25;;;;;;;1999.90;999.90;;;;;;;2.19;65.49;103067.09;4988173;28;96955;-71
2022/01/24 09:57:53;;;;;;;1999.90;999.90;;;;;;;2.24;64.95;103062.28;4986029;28;97746;-71
2022/01/24 10:00:24;;;;;;;1999.90;999.90;;;;;;;2.21;65.75;103073.41;4987248;28;97917;-71
2022/01/24 10:02:52;;;;;;;1999.90;999.90;;;;;;;2.26;64.98;103071.19;4988515;28;96895;-71
2022/01/24 10:05:42;;;;;;;1999.90;999.90;;;;;;;2.29;65.08;103063.59;4988854;28;98694;-71
2022/01/24 10:08:30;;;;;;;1999.90;999.90;;;;;;;2.30;65.56;103068.06;4972089;28;97833;-71
2022/01/24 10:11:01;;;;;;;1999.90;999.90;;;;;;;2.33;65.23;103063.09;4971666;28;98906;-72
2022/01/24 10:16:31;;;;;;;1999.90;999.90;;;;;;;2.39;65.07;103056.69;4987862;28;96806;-71
2022/01/24 10:19:01;;;;;;;1999.90;999.90;;;;;;;2.40;65.20;103049.72;4985390;28;97719;-71
2022/01/24 10:21:52;;;;;;;1999.90;999.90;;;;;;;2.41;64.59;103048.94;4984815;28;96995;-71
2022/01/24 10:24:31;;;;;;;1999.90;999.90;;;;;;;2.34;64.91;103055.34;4987403;28;97003;-71
2022/01/24 10:27:06;;;;;;;1999.90;999.90;;;;;;;2.36;64.69;103051.16;4986762;28;97107;-70
2022/01/24 10:29:34;;;;;;;1999.90;999.90;;;;;;;2.38;65.31;103048.66;4988493;28;97720;-70
2022/01/24 10:32:02;;;;;;;1999.90;999.90;;;;;;;2.39;65.25;103050.50;4986554;28;98358;-71
2022/01/24 10:34:35;;;;;;;1999.90;999.90;;;;;;;2.42;65.09;103049.06;4986797;28;97456;-71
2022/01/24 10:37:05;;;;;;;1999.90;999.90;;;;;;;2.40;65.23;103044.47;4986237;28;97075;-71
2022/01/24 10:39:54;;;;;;;1999.90;999.90;;;;;;;2.40;64.63;103050.63;4984277;28;98363;-71
2022/01/24 10:42:52;;;;;;;1999.90;999.90;;;;;;;2.42;64.97;103051.69;4985410;28;97866;-71
2022/01/24 10:45:23;;;;;;;1999.90;999.90;;;;;;;2.39;65.42;103042.63;4984367;28;97738;-71
2022/01/24 10:47:54;;;;;;;1999.90;999.90;;;;;;;2.40;64.66;103044.47;4985374;28;96785;-70
2022/01/24 10:50:24;;;;;;;1999.90;999.90;;;;;;;2.46;64.54;103045.00;4970574;28;98849;-71
2022/01/24 10:52:54;;;;;;;1999.90;999.90;;;;;;;2.45;64.56;103037.91;4988813;28;98869;-71
2022/01/24 10:55:24;;;;;;;1999.90;999.90;;;;;;;2.46;64.90;103039.75;4987287;28;99218;-71
2022/01/24 10:57:53;;;;;;;1999.90;999.90;;;;;;;2.57;64.38;103041.63;4988541;28;98837;-71
2022/01/24 11:00:24;;;;;;;1999.90;999.90;;;;;;;2.52;64.64;103040.31;4986626;28;97865;-72
2022/01/24 11:02:53;;;;;;;1999.90;999.90;;;;;;;2.49;65.13;103025.16;4985754;28;98063;-71
2022/01/24 11:05:23;;;;;;;1999.90;999.90;;;;;;;2.53;64.72;103029.91;4987200;28;98954;-71
2022/01/24 11:07:57;;;;;;;1999.90;999.90;;;;;;;2.56;65.08;103037.16;4985685;28;97420;-71
2022/01/24 11:10:28;;;;;;;1999.90;999.90;;;;;;;2.51;65.07;103033.22;4986543;28;98132;-71
2022/01/24 11:12:56;;;;;;;1999.90;999.90;;;;;;;2.53;64.86;103032.56;4987405;28;98041;-71
2022/01/24 11:15:25;;;;;;;1999.90;999.90;;;;;;;2.49;64.80;103025.16;4984580;28;98510;-71
2022/01/24 11:17:53;;;;;;;1999.90;999.90;;;;;;;2.54;65.05;103029.16;4985794;28;98249;-71
2022/01/24 11:20:23;;;;;;;1999.90;999.90;;;;;;;2.51;64.59;103023.59;4966678;28;97835;-71
2022/01/24 11:22:58;;;;;;;1999.90;999.90;;;;;;;2.54;64.79;103028.22;4984471;28;98936;-71
2022/01/24 11:25:30;;;;;;;1999.90;999.90;;;;;;;2.57;65.01;103026.78;4985413;28;96811;-71
2022/01/24 11:27:57;;;;;;;1999.90;999.90;;;;;;;2.64;64.92;103025.59;4986753;28;96864;-71
2022/01/24 11:30:29;;;;;;;1999.90;999.90;;;;;;;2.66;64.55;103021.41;4983593;28;99599;-71
2022/01/24 11:33:01;;;;;;;1999.90;999.90;;;;;;;2.65;64.87;103020.50;4986564;28;97549;-72
2022/01/24 11:35:31;;;;;;;1999.90;999.90;;;;;;;2.65;64.44;103019.59;4985749;28;96838;-71
2022/01/24 11:37:59;;;;;;;1999.90;999.90;;;;;;;2.66;64.53;103018.78;4985414;28;97251;-71
2022/01/24 11:40:44;;;;;;;1999.90;999.90;;;;;;;2.64;64.41;103009.84;4983659;28;98580;-72
2022/01/24 11:43:25;;;;;;;1999.90;999.90;;;;;;;2.62;64.50;103011.44;4984778;28;98068;-71
2022/01/24 11:46:01;;;;;;;1999.90;999.90;;;;;;;2.64;64.60;103000.25;4985929;28;97896;-71
2022/01/24 11:48:30;;;;;;;1999.90;999.90;;;;;;;2.62;64.54;102993.94;4987555;28;96761;-71
2022/01/24 11:51:00;;;;;;;1999.90;999.90;;;;;;;2.61;64.50;102994.75;4986088;28;99374;-71
2022/01/24 11:53:30;;;;;;;1999.90;999.90;;;;;;;2.66;64.81;102992.50;4986288;28;99131;-71
2022/01/24 11:56:21;;;;;;;1999.90;999.90;;;;;;;2.60;64.40;102994.63;4985933;28;98010;-72
2022/01/24 11:58:49;;;;;;;1999.90;999.90;;;;;;;2.63;64.96;102986.97;4986237;28;99382;-71
2022/01/24 12:01:36;;;;;;;1999.90;999.90;;;;;;;2.60;64.88;102997.25;4985274;28;97809;-72
2022/01/24 12:04:05;;;;;;;1999.90;999.90;;;;;;;2.66;64.65;102995.13;4985959;28;99320;-72
2022/01/24 12:07:05;;;;;;;1999.90;999.90;;;;;;;2.65;64.16;102990.66;4984589;28;97824;-72
2022/01/24 12:09:33;;;;;;;1999.90;999.90;;;;;;;2.65;64.23;102995.94;4985576;28;96859;-71
2022/01/24 12:12:35;;;;;;;1999.90;999.90;;;;;;;2.60;64.20;102994.63;4988586;28;97674;-71
2022/01/24 12:15:06;;;;;;;1999.90;999.90;;;;;;;2.63;64.67;102990.53;4969009;28;97779;-71
2022/01/24 12:17:48;;;;;;;1999.90;999.90;;;;;;;2.67;64.37;102984.78;4985128;28;98060;-71
2022/01/24 12:20:51;;;;;;;1999.90;999.90;;;;;;;2.68;64.29;102976.09;4985330;28;96944;-71